sensor_id;sensor_type;location;lat;lon;timestamp;P1;durP1;ratioP1;P2;durP2;ratioP2
67363;SDS011;54250;45.572;38.086;2023-08-17T00:00:09;17.05;;;3.45;;
67363;SDS011;54250;45.572;38.086;2023-08-17T00:02:41;10.50;;;3.53;;
67363;SDS011;54250;45.572;38.086;2023-08-17T00:05:07;14.95;;;3.65;;
67363;SDS011;54250;45.572;38.086;2023-08-17T00:07:34;11.45;;;3.28;;
67363;SDS011;54250;45.572;38.086;2023-08-17T00:10:01;9.40;;;3.78;;
67363;SDS011;54250;45.572;38.086;2023-08-17T00:12:27;10.65;;;3.35;;
67363;SDS011;54250;45.572;38.086;2023-08-17T00:14:53;7.82;;;4.15;;
67363;SDS011;54250;45.572;38.086;2023-08-17T00:17:19;7.88;;;3.50;;
67363;SDS011;54250;45.572;38.086;2023-08-17T00:19:45;5.13;;;3.10;;
67363;SDS011;54250;45.572;38.086;2023-08-17T00:22:13;9.93;;;3.30;;
67363;SDS011;54250;45.572;38.086;2023-08-17T00:24:39;14.70;;;3.83;;
67363;SDS011;54250;45.572;38.086;2023-08-17T00:27:07;6.03;;;3.08;;
67363;SDS011;54250;45.572;38.086;2023-08-17T00:29:33;13.48;;;3.35;;
67363;SDS011;54250;45.572;38.086;2023-08-17T00:32:00;13.02;;;4.32;;
67363;SDS011;54250;45.572;38.086;2023-08-17T00:34:27;12.10;;;3.80;;
67363;SDS011;54250;45.572;38.086;2023-08-17T00:36:58;9.00;;;3.42;;
67363;SDS011;54250;45.572;38.086;2023-08-17T00:39:24;6.13;;;3.65;;
67363;SDS011;54250;45.572;38.086;2023-08-17T00:41:50;8.80;;;3.97;;
67363;SDS011;54250;45.572;38.086;2023-08-17T00:44:16;5.88;;;3.55;;
67363;SDS011;54250;45.572;38.086;2023-08-17T00:46:42;17.52;;;4.63;;
67363;SDS011;54250;45.572;38.086;2023-08-17T00:49:08;10.82;;;3.88;;
67363;SDS011;54250;45.572;38.086;2023-08-17T00:51:36;10.00;;;3.78;;
67363;SDS011;54250;45.572;38.086;2023-08-17T00:54:04;11.13;;;3.45;;
67363;SDS011;54250;45.572;38.086;2023-08-17T00:56:30;15.45;;;4.30;;
67363;SDS011;54250;45.572;38.086;2023-08-17T00:58:56;6.63;;;3.88;;
67363;SDS011;54250;45.572;38.086;2023-08-17T01:01:22;7.85;;;3.58;;
67363;SDS011;54250;45.572;38.086;2023-08-17T01:03:48;11.18;;;3.63;;
67363;SDS011;54250;45.572;38.086;2023-08-17T01:06:15;6.45;;;3.80;;
67363;SDS011;54250;45.572;38.086;2023-08-17T01:08:41;19.98;;;3.80;;
67363;SDS011;54250;45.572;38.086;2023-08-17T01:11:13;11.55;;;4.03;;
67363;SDS011;54250;45.572;38.086;2023-08-17T01:13:55;13.40;;;4.05;;
67363;SDS011;54250;45.572;38.086;2023-08-17T01:16:32;13.32;;;4.30;;
67363;SDS011;54250;45.572;38.086;2023-08-17T01:19:04;6.70;;;3.67;;
67363;SDS011;54250;45.572;38.086;2023-08-17T01:21:44;7.18;;;3.38;;
67363;SDS011;54250;45.572;38.086;2023-08-17T01:24:15;5.93;;;3.10;;
67363;SDS011;54250;45.572;38.086;2023-08-17T01:26:41;9.95;;;3.55;;
67363;SDS011;54250;45.572;38.086;2023-08-17T01:29:07;8.75;;;3.33;;
67363;SDS011;54250;45.572;38.086;2023-08-17T01:31:36;9.15;;;3.40;;
67363;SDS011;54250;45.572;38.086;2023-08-17T01:34:09;10.20;;;3.50;;
67363;SDS011;54250;45.572;38.086;2023-08-17T01:36:46;9.88;;;3.38;;
67363;SDS011;54250;45.572;38.086;2023-08-17T01:39:16;4.93;;;3.53;;
67363;SDS011;54250;45.572;38.086;2023-08-17T01:41:43;10.65;;;3.35;;
67363;SDS011;54250;45.572;38.086;2023-08-17T01:44:12;5.57;;;3.10;;
67363;SDS011;54250;45.572;38.086;2023-08-17T01:46:38;7.43;;;3.50;;
67363;SDS011;54250;45.572;38.086;2023-08-17T01:49:04;6.95;;;3.40;;
67363;SDS011;54250;45.572;38.086;2023-08-17T01:51:30;9.90;;;3.25;;
67363;SDS011;54250;45.572;38.086;2023-08-17T01:53:56;12.65;;;3.35;;
67363;SDS011;54250;45.572;38.086;2023-08-17T01:56:22;9.68;;;3.60;;
67363;SDS011;54250;45.572;38.086;2023-08-17T01:58:48;11.43;;;3.50;;
67363;SDS011;54250;45.572;38.086;2023-08-17T02:01:14;9.07;;;3.58;;
67363;SDS011;54250;45.572;38.086;2023-08-17T02:03:40;9.68;;;3.38;;
67363;SDS011;54250;45.572;38.086;2023-08-17T02:06:06;9.57;;;3.08;;
67363;SDS011;54250;45.572;38.086;2023-08-17T02:08:33;6.80;;;2.70;;
67363;SDS011;54250;45.572;38.086;2023-08-17T02:11:00;8.65;;;3.47;;
67363;SDS011;54250;45.572;38.086;2023-08-17T02:13:26;13.95;;;3.67;;
67363;SDS011;54250;45.572;38.086;2023-08-17T02:15:53;8.30;;;2.92;;
67363;SDS011;54250;45.572;38.086;2023-08-17T02:18:19;5.47;;;2.90;;
67363;SDS011;54250;45.572;38.086;2023-08-17T02:20:45;6.80;;;2.90;;
67363;SDS011;54250;45.572;38.086;2023-08-17T02:23:11;13.63;;;3.22;;
67363;SDS011;54250;45.572;38.086;2023-08-17T02:25:37;14.77;;;3.78;;
67363;SDS011;54250;45.572;38.086;2023-08-17T02:28:04;12.05;;;3.15;;
67363;SDS011;54250;45.572;38.086;2023-08-17T02:30:31;5.05;;;3.20;;
67363;SDS011;54250;45.572;38.086;2023-08-17T02:32:57;7.32;;;2.88;;
67363;SDS011;54250;45.572;38.086;2023-08-17T02:35:23;14.02;;;3.58;;
67363;SDS011;54250;45.572;38.086;2023-08-17T02:37:49;6.72;;;2.33;;
67363;SDS011;54250;45.572;38.086;2023-08-17T02:40:15;8.95;;;3.08;;
67363;SDS011;54250;45.572;38.086;2023-08-17T02:42:41;15.75;;;3.55;;
67363;SDS011;54250;45.572;38.086;2023-08-17T02:45:08;15.23;;;3.13;;
67363;SDS011;54250;45.572;38.086;2023-08-17T02:47:34;13.52;;;3.38;;
67363;SDS011;54250;45.572;38.086;2023-08-17T02:50:00;10.48;;;3.60;;
67363;SDS011;54250;45.572;38.086;2023-08-17T02:52:26;6.28;;;3.15;;
67363;SDS011;54250;45.572;38.086;2023-08-17T02:54:52;11.27;;;3.58;;
67363;SDS011;54250;45.572;38.086;2023-08-17T02:57:18;10.50;;;3.47;;
67363;SDS011;54250;45.572;38.086;2023-08-17T02:59:45;7.63;;;3.08;;
67363;SDS011;54250;45.572;38.086;2023-08-17T03:02:11;9.48;;;3.28;;
67363;SDS011;54250;45.572;38.086;2023-08-17T03:04:37;10.82;;;2.90;;
67363;SDS011;54250;45.572;38.086;2023-08-17T03:07:03;9.95;;;3.55;;
67363;SDS011;54250;45.572;38.086;2023-08-17T03:09:29;11.27;;;3.00;;
67363;SDS011;54250;45.572;38.086;2023-08-17T03:11:55;13.20;;;2.90;;
67363;SDS011;54250;45.572;38.086;2023-08-17T03:14:21;11.25;;;2.92;;
67363;SDS011;54250;45.572;38.086;2023-08-17T03:16:47;12.95;;;3.00;;
67363;SDS011;54250;45.572;38.086;2023-08-17T03:19:14;5.53;;;3.13;;
67363;SDS011;54250;45.572;38.086;2023-08-17T03:21:42;6.78;;;3.15;;
67363;SDS011;54250;45.572;38.086;2023-08-17T03:24:10;3.50;;;2.58;;
67363;SDS011;54250;45.572;38.086;2023-08-17T03:26:36;10.27;;;3.30;;
67363;SDS011;54250;45.572;38.086;2023-08-17T03:29:02;6.68;;;3.08;;
67363;SDS011;54250;45.572;38.086;2023-08-17T03:31:28;8.30;;;3.17;;
67363;SDS011;54250;45.572;38.086;2023-08-17T03:33:55;18.55;;;2.83;;
67363;SDS011;54250;45.572;38.086;2023-08-17T03:36:21;10.73;;;3.15;;
67363;SDS011;54250;45.572;38.086;2023-08-17T03:38:47;11.50;;;2.88;;
67363;SDS011;54250;45.572;38.086;2023-08-17T03:41:13;7.28;;;3.00;;
67363;SDS011;54250;45.572;38.086;2023-08-17T03:43:39;9.27;;;2.50;;
67363;SDS011;54250;45.572;38.086;2023-08-17T03:46:05;6.47;;;3.05;;
67363;SDS011;54250;45.572;38.086;2023-08-17T03:48:31;5.93;;;2.90;;
67363;SDS011;54250;45.572;38.086;2023-08-17T03:50:57;7.85;;;2.38;;
67363;SDS011;54250;45.572;38.086;2023-08-17T03:53:23;9.23;;;2.53;;
67363;SDS011;54250;45.572;38.086;2023-08-17T03:55:49;12.52;;;2.50;;
67363;SDS011;54250;45.572;38.086;2023-08-17T03:58:17;13.07;;;2.60;;
67363;SDS011;54250;45.572;38.086;2023-08-17T04:00:50;6.30;;;2.25;;
67363;SDS011;54250;45.572;38.086;2023-08-17T04:03:22;4.95;;;2.40;;
67363;SDS011;54250;45.572;38.086;2023-08-17T04:05:48;6.32;;;2.15;;
67363;SDS011;54250;45.572;38.086;2023-08-17T04:08:14;16.27;;;3.10;;
67363;SDS011;54250;45.572;38.086;2023-08-17T04:10:40;10.20;;;2.35;;
67363;SDS011;54250;45.572;38.086;2023-08-17T04:13:06;6.25;;;2.10;;
67363;SDS011;54250;45.572;38.086;2023-08-17T04:15:32;6.13;;;2.15;;
67363;SDS011;54250;45.572;38.086;2023-08-17T04:17:58;5.32;;;2.33;;
67363;SDS011;54250;45.572;38.086;2023-08-17T04:20:25;7.55;;;2.42;;
67363;SDS011;54250;45.572;38.086;2023-08-17T04:22:51;6.45;;;2.22;;
67363;SDS011;54250;45.572;38.086;2023-08-17T04:25:17;10.77;;;2.58;;
67363;SDS011;54250;45.572;38.086;2023-08-17T04:27:43;10.35;;;2.25;;
67363;SDS011;54250;45.572;38.086;2023-08-17T04:30:09;11.30;;;2.60;;
67363;SDS011;54250;45.572;38.086;2023-08-17T04:32:46;10.95;;;2.30;;
67363;SDS011;54250;45.572;38.086;2023-08-17T04:35:18;11.60;;;2.47;;
67363;SDS011;54250;45.572;38.086;2023-08-17T04:37:45;7.53;;;2.20;;
67363;SDS011;54250;45.572;38.086;2023-08-17T04:40:13;3.60;;;1.88;;
67363;SDS011;54250;45.572;38.086;2023-08-17T04:42:40;19.15;;;3.05;;
67363;SDS011;54250;45.572;38.086;2023-08-17T04:45:06;9.73;;;2.70;;
67363;SDS011;54250;45.572;38.086;2023-08-17T04:47:36;9.75;;;2.47;;
67363;SDS011;54250;45.572;38.086;2023-08-17T04:50:02;5.47;;;2.33;;
67363;SDS011;54250;45.572;38.086;2023-08-17T04:52:29;12.30;;;2.17;;
67363;SDS011;54250;45.572;38.086;2023-08-17T04:54:55;9.13;;;2.38;;
67363;SDS011;54250;45.572;38.086;2023-08-17T04:57:20;12.50;;;2.33;;
67363;SDS011;54250;45.572;38.086;2023-08-17T04:59:46;19.30;;;2.90;;
67363;SDS011;54250;45.572;38.086;2023-08-17T05:02:14;13.25;;;3.20;;
67363;SDS011;54250;45.572;38.086;2023-08-17T05:04:41;4.85;;;2.00;;
67363;SDS011;54250;45.572;38.086;2023-08-17T05:07:08;9.30;;;2.38;;
67363;SDS011;54250;45.572;38.086;2023-08-17T05:09:34;11.45;;;2.67;;
67363;SDS011;54250;45.572;38.086;2023-08-17T05:12:00;6.85;;;2.60;;
67363;SDS011;54250;45.572;38.086;2023-08-17T05:14:26;6.80;;;2.17;;
67363;SDS011;54250;45.572;38.086;2023-08-17T05:16:53;12.07;;;2.22;;
67363;SDS011;54250;45.572;38.086;2023-08-17T05:19:19;12.07;;;2.40;;
67363;SDS011;54250;45.572;38.086;2023-08-17T05:21:45;7.35;;;2.28;;
67363;SDS011;54250;45.572;38.086;2023-08-17T05:24:11;4.38;;;1.80;;
67363;SDS011;54250;45.572;38.086;2023-08-17T05:26:38;26.10;;;2.90;;
67363;SDS011;54250;45.572;38.086;2023-08-17T05:29:05;6.32;;;2.05;;
67363;SDS011;54250;45.572;38.086;2023-08-17T05:31:31;7.72;;;2.10;;
67363;SDS011;54250;45.572;38.086;2023-08-17T05:33:57;23.02;;;2.40;;
67363;SDS011;54250;45.572;38.086;2023-08-17T05:36:24;16.35;;;2.15;;
67363;SDS011;54250;45.572;38.086;2023-08-17T05:38:50;14.25;;;1.70;;
67363;SDS011;54250;45.572;38.086;2023-08-17T05:41:16;8.27;;;2.00;;
67363;SDS011;54250;45.572;38.086;2023-08-17T05:43:43;9.43;;;1.92;;
67363;SDS011;54250;45.572;38.086;2023-08-17T05:46:09;8.30;;;2.03;;
67363;SDS011;54250;45.572;38.086;2023-08-17T05:48:35;9.27;;;2.10;;
67363;SDS011;54250;45.572;38.086;2023-08-17T05:51:01;10.38;;;2.10;;
67363;SDS011;54250;45.572;38.086;2023-08-17T05:53:27;7.85;;;2.28;;
67363;SDS011;54250;45.572;38.086;2023-08-17T05:55:52;7.93;;;2.00;;
67363;SDS011;54250;45.572;38.086;2023-08-17T05:58:18;6.95;;;2.30;;
67363;SDS011;54250;45.572;38.086;2023-08-17T06:00:44;4.60;;;1.75;;
67363;SDS011;54250;45.572;38.086;2023-08-17T06:03:10;10.68;;;1.88;;
67363;SDS011;54250;45.572;38.086;2023-08-17T06:05:40;2.80;;;1.52;;
67363;SDS011;54250;45.572;38.086;2023-08-17T06:08:06;11.82;;;1.92;;
67363;SDS011;54250;45.572;38.086;2023-08-17T06:10:32;17.80;;;2.25;;
67363;SDS011;54250;45.572;38.086;2023-08-17T06:12:57;15.30;;;2.58;;
67363;SDS011;54250;45.572;38.086;2023-08-17T06:15:24;14.52;;;2.15;;
67363;SDS011;54250;45.572;38.086;2023-08-17T06:17:50;7.00;;;1.70;;
67363;SDS011;54250;45.572;38.086;2023-08-17T06:20:16;12.80;;;2.30;;
67363;SDS011;54250;45.572;38.086;2023-08-17T06:22:43;16.27;;;2.25;;
67363;SDS011;54250;45.572;38.086;2023-08-17T06:25:10;7.03;;;1.85;;
67363;SDS011;54250;45.572;38.086;2023-08-17T06:27:36;7.30;;;1.83;;
67363;SDS011;54250;45.572;38.086;2023-08-17T06:30:02;5.95;;;1.67;;
67363;SDS011;54250;45.572;38.086;2023-08-17T06:32:31;8.07;;;1.80;;
67363;SDS011;54250;45.572;38.086;2023-08-17T06:34:57;10.38;;;1.88;;
67363;SDS011;54250;45.572;38.086;2023-08-17T06:37:23;9.63;;;2.08;;
67363;SDS011;54250;45.572;38.086;2023-08-17T06:39:49;12.20;;;2.60;;
67363;SDS011;54250;45.572;38.086;2023-08-17T06:42:15;8.05;;;1.50;;
67363;SDS011;54250;45.572;38.086;2023-08-17T06:44:41;8.00;;;1.95;;
67363;SDS011;54250;45.572;38.086;2023-08-17T06:47:07;9.82;;;2.15;;
67363;SDS011;54250;45.572;38.086;2023-08-17T06:49:34;10.32;;;1.98;;
67363;SDS011;54250;45.572;38.086;2023-08-17T06:52:00;7.63;;;1.98;;
67363;SDS011;54250;45.572;38.086;2023-08-17T06:54:26;17.83;;;1.98;;
67363;SDS011;54250;45.572;38.086;2023-08-17T06:56:52;9.57;;;1.88;;
67363;SDS011;54250;45.572;38.086;2023-08-17T06:59:18;6.78;;;1.75;;
67363;SDS011;54250;45.572;38.086;2023-08-17T07:01:44;21.17;;;2.85;;
67363;SDS011;54250;45.572;38.086;2023-08-17T07:04:10;5.57;;;1.92;;
67363;SDS011;54250;45.572;38.086;2023-08-17T07:06:36;5.90;;;1.60;;
67363;SDS011;54250;45.572;38.086;2023-08-17T07:09:02;5.15;;;1.80;;
67363;SDS011;54250;45.572;38.086;2023-08-17T07:11:30;10.70;;;1.95;;
67363;SDS011;54250;45.572;38.086;2023-08-17T07:13:56;2.70;;;1.42;;
67363;SDS011;54250;45.572;38.086;2023-08-17T07:16:22;14.55;;;1.92;;
67363;SDS011;54250;45.572;38.086;2023-08-17T07:18:48;8.50;;;1.70;;
67363;SDS011;54250;45.572;38.086;2023-08-17T07:21:14;5.90;;;1.70;;
67363;SDS011;54250;45.572;38.086;2023-08-17T07:23:43;9.80;;;1.85;;
67363;SDS011;54250;45.572;38.086;2023-08-17T07:26:10;7.95;;;2.03;;
67363;SDS011;54250;45.572;38.086;2023-08-17T07:28:36;12.50;;;2.13;;
67363;SDS011;54250;45.572;38.086;2023-08-17T07:31:02;11.75;;;1.45;;
67363;SDS011;54250;45.572;38.086;2023-08-17T07:33:28;23.33;;;2.20;;
67363;SDS011;54250;45.572;38.086;2023-08-17T07:35:54;12.10;;;1.98;;
67363;SDS011;54250;45.572;38.086;2023-08-17T07:38:21;3.55;;;1.73;;
67363;SDS011;54250;45.572;38.086;2023-08-17T07:40:47;11.35;;;1.63;;
67363;SDS011;54250;45.572;38.086;2023-08-17T07:43:13;11.32;;;1.70;;
67363;SDS011;54250;45.572;38.086;2023-08-17T07:45:39;16.45;;;1.70;;
67363;SDS011;54250;45.572;38.086;2023-08-17T07:48:05;9.65;;;1.67;;
67363;SDS011;54250;45.572;38.086;2023-08-17T07:50:31;3.45;;;1.35;;
67363;SDS011;54250;45.572;38.086;2023-08-17T07:52:57;14.70;;;1.70;;
67363;SDS011;54250;45.572;38.086;2023-08-17T07:55:23;4.35;;;1.60;;
67363;SDS011;54250;45.572;38.086;2023-08-17T07:57:49;9.50;;;1.50;;
67363;SDS011;54250;45.572;38.086;2023-08-17T08:00:15;7.60;;;1.50;;
67363;SDS011;54250;45.572;38.086;2023-08-17T08:02:41;10.65;;;1.60;;
67363;SDS011;54250;45.572;38.086;2023-08-17T08:05:07;14.32;;;1.88;;
67363;SDS011;54250;45.572;38.086;2023-08-17T08:07:34;13.30;;;1.67;;
67363;SDS011;54250;45.572;38.086;2023-08-17T08:09:59;3.97;;;1.88;;
67363;SDS011;54250;45.572;38.086;2023-08-17T08:12:25;8.50;;;1.67;;
67363;SDS011;54250;45.572;38.086;2023-08-17T08:14:51;3.55;;;1.50;;
67363;SDS011;54250;45.572;38.086;2023-08-17T08:17:17;7.78;;;1.73;;
67363;SDS011;54250;45.572;38.086;2023-08-17T08:19:44;8.68;;;1.83;;
67363;SDS011;54250;45.572;38.086;2023-08-17T08:22:10;7.93;;;1.83;;
67363;SDS011;54250;45.572;38.086;2023-08-17T08:24:36;10.95;;;1.52;;
67363;SDS011;54250;45.572;38.086;2023-08-17T08:27:02;4.75;;;1.67;;
67363;SDS011;54250;45.572;38.086;2023-08-17T08:29:28;6.75;;;1.48;;
67363;SDS011;54250;45.572;38.086;2023-08-17T08:31:54;6.90;;;1.60;;
67363;SDS011;54250;45.572;38.086;2023-08-17T08:34:22;6.40;;;1.42;;
67363;SDS011;54250;45.572;38.086;2023-08-17T08:36:48;8.75;;;1.50;;
67363;SDS011;54250;45.572;38.086;2023-08-17T08:39:14;6.10;;;1.50;;
67363;SDS011;54250;45.572;38.086;2023-08-17T08:41:40;6.03;;;1.50;;
67363;SDS011;54250;45.572;38.086;2023-08-17T08:44:06;9.55;;;1.60;;
67363;SDS011;54250;45.572;38.086;2023-08-17T08:46:32;8.38;;;1.65;;
67363;SDS011;54250;45.572;38.086;2023-08-17T08:49:02;6.00;;;1.30;;
67363;SDS011;54250;45.572;38.086;2023-08-17T08:51:31;8.75;;;1.55;;
67363;SDS011;54250;45.572;38.086;2023-08-17T08:54:00;15.18;;;1.98;;
67363;SDS011;54250;45.572;38.086;2023-08-17T08:56:30;3.47;;;1.63;;
67363;SDS011;54250;45.572;38.086;2023-08-17T08:58:58;10.18;;;1.40;;
67363;SDS011;54250;45.572;38.086;2023-08-17T09:01:28;15.05;;;1.60;;
67363;SDS011;54250;45.572;38.086;2023-08-17T09:03:58;10.77;;;1.50;;
67363;SDS011;54250;45.572;38.086;2023-08-17T09:06:25;4.00;;;1.20;;
67363;SDS011;54250;45.572;38.086;2023-08-17T09:08:52;12.88;;;1.67;;
67363;SDS011;54250;45.572;38.086;2023-08-17T09:11:18;8.10;;;1.55;;
67363;SDS011;54250;45.572;38.086;2023-08-17T09:13:44;10.15;;;1.42;;
67363;SDS011;54250;45.572;38.086;2023-08-17T09:16:10;11.75;;;1.50;;
67363;SDS011;54250;45.572;38.086;2023-08-17T09:18:36;6.43;;;1.38;;
67363;SDS011;54250;45.572;38.086;2023-08-17T09:21:02;12.50;;;1.88;;
67363;SDS011;54250;45.572;38.086;2023-08-17T09:23:28;3.55;;;1.42;;
67363;SDS011;54250;45.572;38.086;2023-08-17T09:25:54;11.98;;;1.50;;
67363;SDS011;54250;45.572;38.086;2023-08-17T09:28:24;11.55;;;3.40;;
67363;SDS011;54250;45.572;38.086;2023-08-17T09:30:53;8.45;;;1.40;;
67363;SDS011;54250;45.572;38.086;2023-08-17T09:33:24;8.30;;;2.17;;
67363;SDS011;54250;45.572;38.086;2023-08-17T09:35:52;2.30;;;1.50;;
67363;SDS011;54250;45.572;38.086;2023-08-17T09:38:19;9.57;;;1.73;;
67363;SDS011;54250;45.572;38.086;2023-08-17T09:40:46;4.95;;;1.20;;
67363;SDS011;54250;45.572;38.086;2023-08-17T09:43:15;11.48;;;1.45;;
67363;SDS011;54250;45.572;38.086;2023-08-17T09:45:43;12.85;;;1.60;;
67363;SDS011;54250;45.572;38.086;2023-08-17T09:48:16;7.55;;;1.27;;
67363;SDS011;54250;45.572;38.086;2023-08-17T09:50:44;15.82;;;2.03;;
67363;SDS011;54250;45.572;38.086;2023-08-17T09:53:14;10.02;;;1.40;;
67363;SDS011;54250;45.572;38.086;2023-08-17T09:55:41;18.45;;;1.70;;
67363;SDS011;54250;45.572;38.086;2023-08-17T09:58:09;12.63;;;2.17;;
67363;SDS011;54250;45.572;38.086;2023-08-17T10:00:35;2.45;;;1.38;;
67363;SDS011;54250;45.572;38.086;2023-08-17T10:03:03;18.85;;;1.58;;
67363;SDS011;54250;45.572;38.086;2023-08-17T10:05:31;7.88;;;1.40;;
67363;SDS011;54250;45.572;38.086;2023-08-17T10:08:04;3.22;;;1.42;;
67363;SDS011;54250;45.572;38.086;2023-08-17T10:10:34;3.30;;;1.27;;
67363;SDS011;54250;45.572;38.086;2023-08-17T10:24:03;7.03;;;1.33;;
67363;SDS011;54250;45.572;38.086;2023-08-17T10:26:30;3.05;;;1.52;;
67363;SDS011;54250;45.572;38.086;2023-08-17T10:28:56;15.07;;;2.17;;
67363;SDS011;54250;45.572;38.086;2023-08-17T10:31:25;5.22;;;1.30;;
67363;SDS011;54250;45.572;38.086;2023-08-17T10:33:51;5.28;;;1.40;;
67363;SDS011;54250;45.572;38.086;2023-08-17T10:36:17;7.38;;;1.27;;
67363;SDS011;54250;45.572;38.086;2023-08-17T10:38:44;6.55;;;1.60;;
67363;SDS011;54250;45.572;38.086;2023-08-17T10:41:14;5.03;;;1.27;;
67363;SDS011;54250;45.572;38.086;2023-08-17T10:43:59;3.45;;;1.25;;
67363;SDS011;54250;45.572;38.086;2023-08-17T10:46:31;3.35;;;1.48;;
67363;SDS011;54250;45.572;38.086;2023-08-17T10:49:04;10.00;;;1.73;;
67363;SDS011;54250;45.572;38.086;2023-08-17T10:51:31;5.32;;;1.40;;
67363;SDS011;54250;45.572;38.086;2023-08-17T10:53:58;7.78;;;1.60;;
67363;SDS011;54250;45.572;38.086;2023-08-17T10:56:29;9.48;;;1.40;;
67363;SDS011;54250;45.572;38.086;2023-08-17T10:58:59;2.65;;;1.30;;
67363;SDS011;54250;45.572;38.086;2023-08-17T11:01:36;7.63;;;1.40;;
67363;SDS011;54250;45.572;38.086;2023-08-17T11:04:09;1.67;;;1.10;;
67363;SDS011;54250;45.572;38.086;2023-08-17T11:06:36;6.85;;;1.25;;
67363;SDS011;54250;45.572;38.086;2023-08-17T11:09:05;7.43;;;1.35;;
67363;SDS011;54250;45.572;38.086;2023-08-17T11:11:33;1.50;;;1.40;;
67363;SDS011;54250;45.572;38.086;2023-08-17T11:13:58;8.70;;;1.30;;
67363;SDS011;54250;45.572;38.086;2023-08-17T11:16:24;15.15;;;2.08;;
67363;SDS011;54250;45.572;38.086;2023-08-17T11:18:50;10.32;;;1.38;;
67363;SDS011;54250;45.572;38.086;2023-08-17T11:21:17;4.63;;;1.30;;
67363;SDS011;54250;45.572;38.086;2023-08-17T11:23:43;4.43;;;1.52;;
67363;SDS011;54250;45.572;38.086;2023-08-17T11:26:09;7.53;;;1.30;;
67363;SDS011;54250;45.572;38.086;2023-08-17T11:28:36;7.20;;;1.30;;
67363;SDS011;54250;45.572;38.086;2023-08-17T11:31:04;3.78;;;1.38;;
67363;SDS011;54250;45.572;38.086;2023-08-17T11:33:35;9.75;;;1.30;;
67363;SDS011;54250;45.572;38.086;2023-08-17T11:36:03;8.60;;;1.92;;
67363;SDS011;54250;45.572;38.086;2023-08-17T11:38:34;6.25;;;1.42;;
67363;SDS011;54250;45.572;38.086;2023-08-17T11:41:04;2.75;;;1.13;;
67363;SDS011;54250;45.572;38.086;2023-08-17T11:43:32;3.75;;;1.35;;
67363;SDS011;54250;45.572;38.086;2023-08-17T11:45:59;9.95;;;1.40;;
67363;SDS011;54250;45.572;38.086;2023-08-17T11:48:26;8.98;;;1.50;;
67363;SDS011;54250;45.572;38.086;2023-08-17T11:50:52;4.63;;;1.45;;
67363;SDS011;54250;45.572;38.086;2023-08-17T11:53:20;7.13;;;1.60;;
67363;SDS011;54250;45.572;38.086;2023-08-17T11:55:46;3.10;;;1.27;;
67363;SDS011;54250;45.572;38.086;2023-08-17T11:58:12;6.93;;;1.40;;
67363;SDS011;54250;45.572;38.086;2023-08-17T12:00:42;3.47;;;1.13;;
67363;SDS011;54250;45.572;38.086;2023-08-17T12:03:14;8.13;;;1.63;;
67363;SDS011;54250;45.572;38.086;2023-08-17T12:05:41;7.72;;;1.48;;
67363;SDS011;54250;45.572;38.086;2023-08-17T12:08:09;4.05;;;1.45;;
67363;SDS011;54250;45.572;38.086;2023-08-17T12:10:36;5.07;;;1.30;;
67363;SDS011;54250;45.572;38.086;2023-08-17T12:13:03;8.90;;;1.10;;
67363;SDS011;54250;45.572;38.086;2023-08-17T12:15:32;13.75;;;1.20;;
67363;SDS011;54250;45.572;38.086;2023-08-17T12:18:00;9.48;;;1.20;;
67363;SDS011;54250;45.572;38.086;2023-08-17T12:20:27;2.85;;;1.08;;
67363;SDS011;54250;45.572;38.086;2023-08-17T12:22:56;4.10;;;0.93;;
67363;SDS011;54250;45.572;38.086;2023-08-17T12:25:24;5.95;;;1.50;;
67363;SDS011;54250;45.572;38.086;2023-08-17T12:27:51;2.05;;;1.00;;
67363;SDS011;54250;45.572;38.086;2023-08-17T12:30:29;6.07;;;1.13;;
67363;SDS011;54250;45.572;38.086;2023-08-17T12:33:01;3.40;;;1.05;;
67363;SDS011;54250;45.572;38.086;2023-08-17T12:35:27;6.85;;;1.65;;
67363;SDS011;54250;45.572;38.086;2023-08-17T12:37:53;6.03;;;1.33;;
67363;SDS011;54250;45.572;38.086;2023-08-17T12:40:20;4.72;;;1.25;;
67363;SDS011;54250;45.572;38.086;2023-08-17T12:42:47;5.47;;;1.40;;
67363;SDS011;54250;45.572;38.086;2023-08-17T12:45:13;2.50;;;1.20;;
67363;SDS011;54250;45.572;38.086;2023-08-17T12:47:39;4.60;;;1.13;;
67363;SDS011;54250;45.572;38.086;2023-08-17T12:50:05;12.80;;;1.30;;
67363;SDS011;54250;45.572;38.086;2023-08-17T12:52:32;5.57;;;1.77;;
67363;SDS011;54250;45.572;38.086;2023-08-17T12:54:58;8.52;;;1.73;;
67363;SDS011;54250;45.572;38.086;2023-08-17T12:57:24;5.32;;;1.25;;
67363;SDS011;54250;45.572;38.086;2023-08-17T12:59:50;4.38;;;1.25;;
67363;SDS011;54250;45.572;38.086;2023-08-17T13:02:16;3.80;;;1.30;;
67363;SDS011;54250;45.572;38.086;2023-08-17T13:04:42;9.35;;;1.20;;
67363;SDS011;54250;45.572;38.086;2023-08-17T13:07:08;12.98;;;1.52;;
67363;SDS011;54250;45.572;38.086;2023-08-17T13:09:34;2.53;;;1.00;;
67363;SDS011;54250;45.572;38.086;2023-08-17T13:12:00;5.10;;;1.27;;
67363;SDS011;54250;45.572;38.086;2023-08-17T13:14:26;5.88;;;1.40;;
67363;SDS011;54250;45.572;38.086;2023-08-17T13:16:52;5.28;;;1.20;;
67363;SDS011;54250;45.572;38.086;2023-08-17T13:19:20;6.35;;;1.63;;
67363;SDS011;54250;45.572;38.086;2023-08-17T13:21:46;5.40;;;1.50;;
67363;SDS011;54250;45.572;38.086;2023-08-17T13:24:12;9.10;;;1.60;;
67363;SDS011;54250;45.572;38.086;2023-08-17T13:26:38;3.72;;;1.17;;
67363;SDS011;54250;45.572;38.086;2023-08-17T13:29:04;5.90;;;1.40;;
67363;SDS011;54250;45.572;38.086;2023-08-17T13:31:30;1.55;;;1.15;;
67363;SDS011;54250;45.572;38.086;2023-08-17T13:33:59;4.75;;;1.35;;
67363;SDS011;54250;45.572;38.086;2023-08-17T13:36:25;5.93;;;1.30;;
67363;SDS011;54250;45.572;38.086;2023-08-17T13:38:50;8.57;;;1.38;;
67363;SDS011;54250;45.572;38.086;2023-08-17T13:41:16;1.52;;;1.20;;
67363;SDS011;54250;45.572;38.086;2023-08-17T13:43:42;5.25;;;1.70;;
67363;SDS011;54250;45.572;38.086;2023-08-17T13:46:08;3.72;;;1.40;;
67363;SDS011;54250;45.572;38.086;2023-08-17T13:48:34;11.52;;;1.50;;
67363;SDS011;54250;45.572;38.086;2023-08-17T13:51:03;4.97;;;1.70;;
67363;SDS011;54250;45.572;38.086;2023-08-17T13:53:31;10.95;;;1.40;;
67363;SDS011;54250;45.572;38.086;2023-08-17T13:55:57;3.00;;;1.25;;
67363;SDS011;54250;45.572;38.086;2023-08-17T13:58:23;10.20;;;2.10;;
67363;SDS011;54250;45.572;38.086;2023-08-17T14:00:50;3.70;;;1.02;;
67363;SDS011;54250;45.572;38.086;2023-08-17T14:03:16;10.40;;;1.42;;
67363;SDS011;54250;45.572;38.086;2023-08-17T14:05:42;4.35;;;1.13;;
67363;SDS011;54250;45.572;38.086;2023-08-17T14:08:08;8.75;;;1.20;;
67363;SDS011;54250;45.572;38.086;2023-08-17T14:10:36;6.45;;;1.35;;
67363;SDS011;54250;45.572;38.086;2023-08-17T14:13:02;4.13;;;1.25;;
67363;SDS011;54250;45.572;38.086;2023-08-17T14:15:28;9.32;;;1.10;;
67363;SDS011;54250;45.572;38.086;2023-08-17T14:17:54;5.65;;;1.38;;
67363;SDS011;54250;45.572;38.086;2023-08-17T14:20:20;9.00;;;1.65;;
67363;SDS011;54250;45.572;38.086;2023-08-17T14:22:46;7.13;;;1.25;;
67363;SDS011;54250;45.572;38.086;2023-08-17T14:25:13;10.73;;;2.20;;
67363;SDS011;54250;45.572;38.086;2023-08-17T14:27:39;8.93;;;1.30;;
67363;SDS011;54250;45.572;38.086;2023-08-17T14:30:05;10.27;;;1.50;;
67363;SDS011;54250;45.572;38.086;2023-08-17T14:32:31;3.20;;;1.13;;
67363;SDS011;54250;45.572;38.086;2023-08-17T14:34:57;4.75;;;1.35;;
67363;SDS011;54250;45.572;38.086;2023-08-17T14:37:24;7.53;;;1.25;;
67363;SDS011;54250;45.572;38.086;2023-08-17T14:39:50;5.85;;;1.20;;